sensor_id;sensor_type;location;lat;lon;timestamp;P1;durP1;ratioP1;P2;durP2;ratioP2
11425;SDS011;5769;47.998;7.788;2023-03-04T00:02:08;3.40;;;1.90;;
11425;SDS011;5769;47.998;7.788;2023-03-04T00:04:35;4.18;;;2.17;;
11425;SDS011;5769;47.998;7.788;2023-03-04T00:07:02;4.35;;;2.30;;
11425;SDS011;5769;47.998;7.788;2023-03-04T00:09:28;4.22;;;2.08;;
11425;SDS011;5769;47.998;7.788;2023-03-04T00:11:55;4.82;;;2.33;;
11425;SDS011;5769;47.998;7.788;2023-03-04T00:14:22;4.10;;;2.03;;
11425;SDS011;5769;47.998;7.788;2023-03-04T00:16:50;4.65;;;2.10;;
11425;SDS011;5769;47.998;7.788;2023-03-04T00:19:17;5.45;;;2.30;;
11425;SDS011;5769;47.998;7.788;2023-03-04T00:21:43;4.30;;;2.00;;
11425;SDS011;5769;47.998;7.788;2023-03-04T00:24:10;3.22;;;2.00;;
11425;SDS011;5769;47.998;7.788;2023-03-04T00:26:36;3.80;;;2.10;;
11425;SDS011;5769;47.998;7.788;2023-03-04T00:29:03;3.15;;;1.95;;
11425;SDS011;5769;47.998;7.788;2023-03-04T00:31:30;4.22;;;2.00;;
11425;SDS011;5769;47.998;7.788;2023-03-04T00:33:58;3.90;;;2.03;;
11425;SDS011;5769;47.998;7.788;2023-03-04T00:36:24;4.68;;;2.20;;
11425;SDS011;5769;47.998;7.788;2023-03-04T00:38:51;3.95;;;2.30;;
11425;SDS011;5769;47.998;7.788;2023-03-04T00:41:18;3.78;;;2.20;;
11425;SDS011;5769;47.998;7.788;2023-03-04T00:43:44;3.05;;;1.73;;
11425;SDS011;5769;47.998;7.788;2023-03-04T00:46:11;4.60;;;2.03;;
11425;SDS011;5769;47.998;7.788;2023-03-04T00:48:38;4.10;;;2.00;;
11425;SDS011;5769;47.998;7.788;2023-03-04T00:51:06;5.25;;;2.40;;
11425;SDS011;5769;47.998;7.788;2023-03-04T00:53:32;4.45;;;1.90;;
11425;SDS011;5769;47.998;7.788;2023-03-04T00:55:59;4.45;;;2.00;;
11425;SDS011;5769;47.998;7.788;2023-03-04T00:58:26;4.07;;;2.08;;
11425;SDS011;5769;47.998;7.788;2023-03-04T01:00:52;4.25;;;2.30;;
11425;SDS011;5769;47.998;7.788;2023-03-04T01:03:19;3.85;;;2.00;;
11425;SDS011;5769;47.998;7.788;2023-03-04T01:05:46;4.53;;;2.30;;
11425;SDS011;5769;47.998;7.788;2023-03-04T01:08:14;3.78;;;2.00;;
11425;SDS011;5769;47.998;7.788;2023-03-04T01:10:40;5.55;;;2.47;;
11425;SDS011;5769;47.998;7.788;2023-03-04T01:13:07;3.78;;;1.95;;
11425;SDS011;5769;47.998;7.788;2023-03-04T01:15:34;3.03;;;1.90;;
11425;SDS011;5769;47.998;7.788;2023-03-04T01:18:00;6.18;;;2.13;;
11425;SDS011;5769;47.998;7.788;2023-03-04T01:20:27;3.85;;;2.20;;
11425;SDS011;5769;47.998;7.788;2023-03-04T01:22:54;4.25;;;2.22;;
11425;SDS011;5769;47.998;7.788;2023-03-04T01:25:22;3.65;;;2.00;;
11425;SDS011;5769;47.998;7.788;2023-03-04T01:27:48;4.05;;;2.10;;
11425;SDS011;5769;47.998;7.788;2023-03-04T01:30:15;3.45;;;2.13;;
11425;SDS011;5769;47.998;7.788;2023-03-04T01:32:42;4.45;;;2.00;;
11425;SDS011;5769;47.998;7.788;2023-03-04T01:35:09;4.80;;;2.40;;
11425;SDS011;5769;47.998;7.788;2023-03-04T01:37:35;4.22;;;1.90;;
11425;SDS011;5769;47.998;7.788;2023-03-04T01:40:02;3.85;;;2.10;;
11425;SDS011;5769;47.998;7.788;2023-03-04T01:42:32;4.15;;;2.08;;
11425;SDS011;5769;47.998;7.788;2023-03-04T01:45:00;2.97;;;1.85;;
11425;SDS011;5769;47.998;7.788;2023-03-04T01:47:28;3.15;;;1.80;;
11425;SDS011;5769;47.998;7.788;2023-03-04T01:49:57;3.97;;;2.15;;
11425;SDS011;5769;47.998;7.788;2023-03-04T01:52:26;3.67;;;2.15;;
11425;SDS011;5769;47.998;7.788;2023-03-04T01:54:53;4.00;;;2.08;;
11425;SDS011;5769;47.998;7.788;2023-03-04T01:57:21;4.90;;;1.90;;
11425;SDS011;5769;47.998;7.788;2023-03-04T02:02:58;4.18;;;1.90;;
11425;SDS011;5769;47.998;7.788;2023-03-04T02:05:27;4.45;;;2.13;;
11425;SDS011;5769;47.998;7.788;2023-03-04T02:07:56;3.75;;;2.10;;
11425;SDS011;5769;47.998;7.788;2023-03-04T02:10:25;4.97;;;2.17;;
11425;SDS011;5769;47.998;7.788;2023-03-04T02:12:52;3.75;;;2.00;;
11425;SDS011;5769;47.998;7.788;2023-03-04T02:15:19;3.90;;;2.10;;
11425;SDS011;5769;47.998;7.788;2023-03-04T02:17:47;3.40;;;1.88;;
11425;SDS011;5769;47.998;7.788;2023-03-04T02:20:21;2.78;;;1.75;;
11425;SDS011;5769;47.998;7.788;2023-03-04T02:23:01;4.28;;;2.15;;
11425;SDS011;5769;47.998;7.788;2023-03-04T02:25:34;4.28;;;2.35;;
11425;SDS011;5769;47.998;7.788;2023-03-04T02:28:05;5.07;;;2.20;;
11425;SDS011;5769;47.998;7.788;2023-03-04T02:30:32;3.80;;;2.00;;
11425;SDS011;5769;47.998;7.788;2023-03-04T02:32:59;3.85;;;2.10;;
11425;SDS011;5769;47.998;7.788;2023-03-04T02:35:26;4.28;;;2.10;;
11425;SDS011;5769;47.998;7.788;2023-03-04T02:37:53;3.63;;;1.80;;
11425;SDS011;5769;47.998;7.788;2023-03-04T02:40:20;3.75;;;2.20;;
11425;SDS011;5769;47.998;7.788;2023-03-04T02:42:52;4.32;;;2.05;;
11425;SDS011;5769;47.998;7.788;2023-03-04T02:48:15;4.85;;;2.20;;
11425;SDS011;5769;47.998;7.788;2023-03-04T02:50:44;3.05;;;1.83;;
11425;SDS011;5769;47.998;7.788;2023-03-04T02:53:13;3.83;;;1.85;;
11425;SDS011;5769;47.998;7.788;2023-03-04T02:55:40;3.88;;;2.08;;
11425;SDS011;5769;47.998;7.788;2023-03-04T02:58:07;5.00;;;2.00;;
11425;SDS011;5769;47.998;7.788;2023-03-04T03:00:34;3.47;;;1.92;;
11425;SDS011;5769;47.998;7.788;2023-03-04T03:03:03;4.35;;;2.10;;
11425;SDS011;5769;47.998;7.788;2023-03-04T03:05:31;4.10;;;2.13;;
11425;SDS011;5769;47.998;7.788;2023-03-04T03:08:01;4.05;;;2.00;;
11425;SDS011;5769;47.998;7.788;2023-03-04T03:10:27;4.97;;;2.10;;
11425;SDS011;5769;47.998;7.788;2023-03-04T03:12:54;4.25;;;1.90;;
11425;SDS011;5769;47.998;7.788;2023-03-04T03:15:21;3.55;;;1.90;;
11425;SDS011;5769;47.998;7.788;2023-03-04T03:17:48;3.70;;;2.15;;
11425;SDS011;5769;47.998;7.788;2023-03-04T03:20:16;3.20;;;1.80;;
11425;SDS011;5769;47.998;7.788;2023-03-04T03:22:43;4.10;;;2.10;;
11425;SDS011;5769;47.998;7.788;2023-03-04T03:25:11;3.35;;;2.03;;
11425;SDS011;5769;47.998;7.788;2023-03-04T03:27:39;3.88;;;2.03;;
11425;SDS011;5769;47.998;7.788;2023-03-04T03:30:07;4.18;;;2.10;;
11425;SDS011;5769;47.998;7.788;2023-03-04T03:32:35;3.13;;;1.90;;
11425;SDS011;5769;47.998;7.788;2023-03-04T03:35:02;4.63;;;2.03;;
11425;SDS011;5769;47.998;7.788;2023-03-04T03:37:30;3.17;;;1.70;;
11425;SDS011;5769;47.998;7.788;2023-03-04T03:39:57;3.50;;;2.03;;
11425;SDS011;5769;47.998;7.788;2023-03-04T03:42:24;3.30;;;1.90;;
11425;SDS011;5769;47.998;7.788;2023-03-04T03:44:50;4.30;;;2.00;;
11425;SDS011;5769;47.998;7.788;2023-03-04T03:47:17;5.28;;;2.33;;
11425;SDS011;5769;47.998;7.788;2023-03-04T03:49:44;3.67;;;1.90;;
11425;SDS011;5769;47.998;7.788;2023-03-04T03:52:10;4.45;;;2.00;;
11425;SDS011;5769;47.998;7.788;2023-03-04T03:54:38;4.53;;;2.10;;
11425;SDS011;5769;47.998;7.788;2023-03-04T03:57:05;3.95;;;2.05;;
11425;SDS011;5769;47.998;7.788;2023-03-04T03:59:32;3.63;;;2.10;;
11425;SDS011;5769;47.998;7.788;2023-03-04T04:01:58;3.70;;;2.22;;
11425;SDS011;5769;47.998;7.788;2023-03-04T04:04:25;3.95;;;1.95;;
11425;SDS011;5769;47.998;7.788;2023-03-04T04:06:52;3.78;;;2.03;;
11425;SDS011;5769;47.998;7.788;2023-03-04T04:09:18;4.72;;;2.35;;
11425;SDS011;5769;47.998;7.788;2023-03-04T04:11:46;3.55;;;1.80;;
11425;SDS011;5769;47.998;7.788;2023-03-04T04:14:13;3.78;;;1.70;;
11425;SDS011;5769;47.998;7.788;2023-03-04T04:16:40;3.72;;;2.00;;
11425;SDS011;5769;47.998;7.788;2023-03-04T04:19:08;3.30;;;2.15;;
11425;SDS011;5769;47.998;7.788;2023-03-04T04:21:39;3.30;;;1.92;;
11425;SDS011;5769;47.998;7.788;2023-03-04T04:24:05;3.55;;;1.88;;
11425;SDS011;5769;47.998;7.788;2023-03-04T04:26:32;3.50;;;2.03;;
11425;SDS011;5769;47.998;7.788;2023-03-04T04:29:00;3.28;;;1.80;;
11425;SDS011;5769;47.998;7.788;2023-03-04T04:31:27;4.05;;;1.73;;
11425;SDS011;5769;47.998;7.788;2023-03-04T04:33:53;4.28;;;2.20;;
11425;SDS011;5769;47.998;7.788;2023-03-04T04:36:20;3.58;;;1.90;;
11425;SDS011;5769;47.998;7.788;2023-03-04T04:38:47;3.45;;;1.80;;
11425;SDS011;5769;47.998;7.788;2023-03-04T04:41:16;3.30;;;1.90;;
11425;SDS011;5769;47.998;7.788;2023-03-04T04:43:45;4.15;;;2.13;;
11425;SDS011;5769;47.998;7.788;2023-03-04T04:46:14;5.38;;;1.85;;
11425;SDS011;5769;47.998;7.788;2023-03-04T04:48:41;4.22;;;2.15;;
11425;SDS011;5769;47.998;7.788;2023-03-04T04:51:08;4.10;;;2.08;;
11425;SDS011;5769;47.998;7.788;2023-03-04T04:53:35;3.50;;;1.85;;
11425;SDS011;5769;47.998;7.788;2023-03-04T04:56:07;3.47;;;2.00;;
11425;SDS011;5769;47.998;7.788;2023-03-04T04:58:34;4.28;;;1.98;;
11425;SDS011;5769;47.998;7.788;2023-03-04T05:01:02;3.70;;;1.90;;
11425;SDS011;5769;47.998;7.788;2023-03-04T05:03:30;3.67;;;1.80;;
11425;SDS011;5769;47.998;7.788;2023-03-04T05:05:57;3.00;;;1.85;;
11425;SDS011;5769;47.998;7.788;2023-03-04T05:08:23;3.10;;;1.90;;
11425;SDS011;5769;47.998;7.788;2023-03-04T05:10:50;3.47;;;1.73;;
11425;SDS011;5769;47.998;7.788;2023-03-04T05:13:17;3.22;;;1.90;;
11425;SDS011;5769;47.998;7.788;2023-03-04T05:15:44;3.90;;;1.88;;
11425;SDS011;5769;47.998;7.788;2023-03-04T05:18:10;3.53;;;1.90;;
11425;SDS011;5769;47.998;7.788;2023-03-04T05:20:38;3.65;;;1.90;;
11425;SDS011;5769;47.998;7.788;2023-03-04T05:23:05;3.40;;;2.03;;
11425;SDS011;5769;47.998;7.788;2023-03-04T05:25:32;3.47;;;2.00;;
11425;SDS011;5769;47.998;7.788;2023-03-04T05:27:58;2.83;;;1.80;;
11425;SDS011;5769;47.998;7.788;2023-03-04T05:30:26;3.38;;;1.80;;
11425;SDS011;5769;47.998;7.788;2023-03-04T05:32:52;4.68;;;2.10;;
11425;SDS011;5769;47.998;7.788;2023-03-04T05:35:19;2.70;;;1.70;;
11425;SDS011;5769;47.998;7.788;2023-03-04T05:37:47;3.50;;;1.92;;
11425;SDS011;5769;47.998;7.788;2023-03-04T05:40:14;2.90;;;1.60;;
11425;SDS011;5769;47.998;7.788;2023-03-04T05:42:40;3.45;;;1.70;;
11425;SDS011;5769;47.998;7.788;2023-03-04T05:45:07;3.60;;;1.75;;
11425;SDS011;5769;47.998;7.788;2023-03-04T05:47:35;2.95;;;1.83;;
11425;SDS011;5769;47.998;7.788;2023-03-04T05:50:01;3.25;;;1.80;;
11425;SDS011;5769;47.998;7.788;2023-03-04T05:52:28;3.35;;;1.70;;
11425;SDS011;5769;47.998;7.788;2023-03-04T05:54:56;2.63;;;1.45;;
11425;SDS011;5769;47.998;7.788;2023-03-04T05:57:26;3.72;;;1.80;;
11425;SDS011;5769;47.998;7.788;2023-03-04T05:59:53;3.47;;;1.90;;
11425;SDS011;5769;47.998;7.788;2023-03-04T06:02:19;3.55;;;2.03;;
11425;SDS011;5769;47.998;7.788;2023-03-04T06:04:46;4.05;;;1.80;;
11425;SDS011;5769;47.998;7.788;2023-03-04T06:07:13;2.20;;;1.50;;
11425;SDS011;5769;47.998;7.788;2023-03-04T06:09:42;3.20;;;1.70;;
11425;SDS011;5769;47.998;7.788;2023-03-04T06:12:11;3.08;;;1.80;;
11425;SDS011;5769;47.998;7.788;2023-03-04T06:14:38;4.00;;;1.85;;
11425;SDS011;5769;47.998;7.788;2023-03-04T06:17:04;3.22;;;1.80;;
11425;SDS011;5769;47.998;7.788;2023-03-04T06:19:31;3.55;;;1.92;;
11425;SDS011;5769;47.998;7.788;2023-03-04T06:21:58;3.35;;;1.85;;
11425;SDS011;5769;47.998;7.788;2023-03-04T06:24:24;3.63;;;1.65;;
11425;SDS011;5769;47.998;7.788;2023-03-04T06:26:52;3.47;;;1.80;;
11425;SDS011;5769;47.998;7.788;2023-03-04T06:29:20;3.47;;;1.80;;
11425;SDS011;5769;47.998;7.788;2023-03-04T06:31:47;2.70;;;1.75;;
11425;SDS011;5769;47.998;7.788;2023-03-04T06:34:14;3.50;;;1.70;;
11425;SDS011;5769;47.998;7.788;2023-03-04T06:36:40;3.13;;;1.70;;
11425;SDS011;5769;47.998;7.788;2023-03-04T06:39:07;3.10;;;1.80;;
11425;SDS011;5769;47.998;7.788;2023-03-04T06:41:34;3.40;;;1.80;;
11425;SDS011;5769;47.998;7.788;2023-03-04T06:44:03;2.80;;;1.60;;
11425;SDS011;5769;47.998;7.788;2023-03-04T06:46:32;3.03;;;1.75;;
11425;SDS011;5769;47.998;7.788;2023-03-04T06:49:00;3.55;;;1.80;;
11425;SDS011;5769;47.998;7.788;2023-03-04T06:51:27;3.25;;;1.90;;
11425;SDS011;5769;47.998;7.788;2023-03-04T06:53:54;2.60;;;1.67;;
11425;SDS011;5769;47.998;7.788;2023-03-04T06:56:21;3.67;;;1.77;;
11425;SDS011;5769;47.998;7.788;2023-03-04T06:58:48;3.38;;;1.70;;
11425;SDS011;5769;47.998;7.788;2023-03-04T07:01:16;2.92;;;1.60;;
11425;SDS011;5769;47.998;7.788;2023-03-04T07:03:46;2.85;;;1.80;;
11425;SDS011;5769;47.998;7.788;2023-03-04T07:06:14;3.75;;;1.80;;
11425;SDS011;5769;47.998;7.788;2023-03-04T07:08:42;3.38;;;1.73;;
11425;SDS011;5769;47.998;7.788;2023-03-04T07:11:09;2.63;;;1.60;;
11425;SDS011;5769;47.998;7.788;2023-03-04T07:13:36;3.55;;;1.65;;
11425;SDS011;5769;47.998;7.788;2023-03-04T07:16:03;2.67;;;1.52;;
11425;SDS011;5769;47.998;7.788;2023-03-04T07:18:30;3.08;;;1.70;;
11425;SDS011;5769;47.998;7.788;2023-03-04T07:20:58;3.28;;;1.65;;
11425;SDS011;5769;47.998;7.788;2023-03-04T07:23:25;2.83;;;1.50;;
11425;SDS011;5769;47.998;7.788;2023-03-04T07:25:52;2.55;;;1.50;;
11425;SDS011;5769;47.998;7.788;2023-03-04T07:28:18;3.40;;;1.75;;
11425;SDS011;5769;47.998;7.788;2023-03-04T07:30:45;3.33;;;1.60;;
11425;SDS011;5769;47.998;7.788;2023-03-04T07:33:12;3.50;;;1.60;;
11425;SDS011;5769;47.998;7.788;2023-03-04T07:35:39;2.90;;;1.77;;
11425;SDS011;5769;47.998;7.788;2023-03-04T07:38:07;3.58;;;1.73;;
11425;SDS011;5769;47.998;7.788;2023-03-04T07:40:34;2.85;;;1.58;;
11425;SDS011;5769;47.998;7.788;2023-03-04T07:43:01;2.72;;;1.60;;
11425;SDS011;5769;47.998;7.788;2023-03-04T07:45:27;2.92;;;1.75;;
11425;SDS011;5769;47.998;7.788;2023-03-04T07:47:54;3.20;;;1.65;;
11425;SDS011;5769;47.998;7.788;2023-03-04T07:50:22;2.92;;;1.60;;
11425;SDS011;5769;47.998;7.788;2023-03-04T07:52:49;4.50;;;1.70;;
11425;SDS011;5769;47.998;7.788;2023-03-04T07:55:18;3.03;;;1.60;;
11425;SDS011;5769;47.998;7.788;2023-03-04T07:57:45;3.67;;;1.80;;
11425;SDS011;5769;47.998;7.788;2023-03-04T08:00:13;3.60;;;1.70;;
11425;SDS011;5769;47.998;7.788;2023-03-04T08:02:42;2.30;;;1.52;;
11425;SDS011;5769;47.998;7.788;2023-03-04T08:05:08;2.65;;;1.67;;
11425;SDS011;5769;47.998;7.788;2023-03-04T08:07:35;3.22;;;1.80;;
11425;SDS011;5769;47.998;7.788;2023-03-04T08:10:02;3.40;;;1.70;;
11425;SDS011;5769;47.998;7.788;2023-03-04T08:12:30;2.78;;;1.60;;
11425;SDS011;5769;47.998;7.788;2023-03-04T08:14:57;2.88;;;1.50;;
11425;SDS011;5769;47.998;7.788;2023-03-04T08:17:24;2.50;;;1.50;;
11425;SDS011;5769;47.998;7.788;2023-03-04T08:19:50;2.75;;;1.55;;
11425;SDS011;5769;47.998;7.788;2023-03-04T08:22:17;3.20;;;1.75;;
11425;SDS011;5769;47.998;7.788;2023-03-04T08:24:44;2.58;;;1.60;;
11425;SDS011;5769;47.998;7.788;2023-03-04T08:27:10;3.03;;;1.65;;
11425;SDS011;5769;47.998;7.788;2023-03-04T08:29:38;3.33;;;1.70;;
11425;SDS011;5769;47.998;7.788;2023-03-04T08:32:05;2.35;;;1.60;;
11425;SDS011;5769;47.998;7.788;2023-03-04T08:34:32;2.88;;;1.73;;
11425;SDS011;5769;47.998;7.788;2023-03-04T08:36:58;3.97;;;1.63;;
11425;SDS011;5769;47.998;7.788;2023-03-04T08:39:25;2.70;;;1.40;;
11425;SDS011;5769;47.998;7.788;2023-03-04T08:41:52;3.45;;;1.80;;
11425;SDS011;5769;47.998;7.788;2023-03-04T08:44:18;2.85;;;1.50;;
11425;SDS011;5769;47.998;7.788;2023-03-04T08:46:46;3.75;;;1.73;;
11425;SDS011;5769;47.998;7.788;2023-03-04T08:49:13;2.58;;;1.52;;
11425;SDS011;5769;47.998;7.788;2023-03-04T08:51:40;3.15;;;1.80;;
11425;SDS011;5769;47.998;7.788;2023-03-04T08:54:06;2.17;;;1.45;;
11425;SDS011;5769;47.998;7.788;2023-03-04T08:56:33;2.75;;;1.50;;
11425;SDS011;5769;47.998;7.788;2023-03-04T08:59:00;2.58;;;1.48;;
11425;SDS011;5769;47.998;7.788;2023-03-04T09:01:27;3.60;;;1.80;;
11425;SDS011;5769;47.998;7.788;2023-03-04T09:03:55;3.30;;;1.70;;
11425;SDS011;5769;47.998;7.788;2023-03-04T09:06:21;3.25;;;1.70;;
11425;SDS011;5769;47.998;7.788;2023-03-04T09:08:48;2.97;;;1.70;;
11425;SDS011;5769;47.998;7.788;2023-03-04T09:11:15;3.70;;;1.90;;
11425;SDS011;5769;47.998;7.788;2023-03-04T09:13:41;4.07;;;1.60;;
11425;SDS011;5769;47.998;7.788;2023-03-04T09:16:08;3.42;;;1.60;;
11425;SDS011;5769;47.998;7.788;2023-03-04T09:18:36;2.67;;;1.48;;
11425;SDS011;5769;47.998;7.788;2023-03-04T09:21:05;3.47;;;1.48;;
11425;SDS011;5769;47.998;7.788;2023-03-04T09:23:32;2.50;;;1.48;;
11425;SDS011;5769;47.998;7.788;2023-03-04T09:25:59;2.42;;;1.33;;
11425;SDS011;5769;47.998;7.788;2023-03-04T09:28:26;2.83;;;1.70;;
11425;SDS011;5769;47.998;7.788;2023-03-04T09:30:53;3.47;;;1.83;;
11425;SDS011;5769;47.998;7.788;2023-03-04T09:33:19;4.68;;;2.08;;
11425;SDS011;5769;47.998;7.788;2023-03-04T09:35:46;3.42;;;1.80;;
11425;SDS011;5769;47.998;7.788;2023-03-04T09:38:15;4.80;;;2.10;;
11425;SDS011;5769;47.998;7.788;2023-03-04T09:40:42;3.55;;;1.92;;
11425;SDS011;5769;47.998;7.788;2023-03-04T09:43:14;4.38;;;1.88;;
11425;SDS011;5769;47.998;7.788;2023-03-04T09:45:46;4.82;;;2.05;;
11425;SDS011;5769;47.998;7.788;2023-03-04T09:48:16;4.30;;;2.05;;
11425;SDS011;5769;47.998;7.788;2023-03-04T09:50:47;3.70;;;1.90;;
11425;SDS011;5769;47.998;7.788;2023-03-04T09:53:27;6.50;;;2.40;;
11425;SDS011;5769;47.998;7.788;2023-03-04T09:56:01;4.65;;;2.40;;
11425;SDS011;5769;47.998;7.788;2023-03-04T09:58:34;8.13;;;3.47;;
11425;SDS011;5769;47.998;7.788;2023-03-04T10:01:09;6.93;;;3.08;;
11425;SDS011;5769;47.998;7.788;2023-03-04T10:03:45;7.53;;;3.22;;
11425;SDS011;5769;47.998;7.788;2023-03-04T10:06:17;7.13;;;3.00;;
11425;SDS011;5769;47.998;7.788;2023-03-04T10:08:48;6.45;;;3.10;;
11425;SDS011;5769;47.998;7.788;2023-03-04T10:11:19;8.68;;;3.20;;
11425;SDS011;5769;47.998;7.788;2023-03-04T10:13:57;6.45;;;2.83;;
11425;SDS011;5769;47.998;7.788;2023-03-04T10:16:30;6.35;;;2.78;;
11425;SDS011;5769;47.998;7.788;2023-03-04T10:19:18;5.70;;;2.63;;
11425;SDS011;5769;47.998;7.788;2023-03-04T10:21:53;12.02;;;3.33;;
11425;SDS011;5769;47.998;7.788;2023-03-04T10:24:22;6.80;;;2.80;;
11425;SDS011;5769;47.998;7.788;2023-03-04T10:26:53;5.75;;;2.92;;
11425;SDS011;5769;47.998;7.788;2023-03-04T10:29:25;6.82;;;2.63;;
11425;SDS011;5769;47.998;7.788;2023-03-04T10:31:53;7.47;;;2.80;;
11425;SDS011;5769;47.998;7.788;2023-03-04T10:34:20;8.38;;;3.13;;
11425;SDS011;5769;47.998;7.788;2023-03-04T10:36:49;6.10;;;2.80;;
11425;SDS011;5769;47.998;7.788;2023-03-04T10:39:24;6.07;;;2.83;;
11425;SDS011;5769;47.998;7.788;2023-03-04T10:41:53;5.55;;;2.67;;
11425;SDS011;5769;47.998;7.788;2023-03-04T10:44:23;7.07;;;2.88;;
11425;SDS011;5769;47.998;7.788;2023-03-04T10:46:51;6.28;;;2.88;;
11425;SDS011;5769;47.998;7.788;2023-03-04T10:49:20;6.43;;;2.60;;
11425;SDS011;5769;47.998;7.788;2023-03-04T10:51:49;5.85;;;2.80;;
11425;SDS011;5769;47.998;7.788;2023-03-04T10:54:23;4.15;;;2.50;;
11425;SDS011;5769;47.998;7.788;2023-03-04T10:56:57;6.63;;;2.70;;
11425;SDS011;5769;47.998;7.788;2023-03-04T10:59:30;5.72;;;2.63;;
11425;SDS011;5769;47.998;7.788;2023-03-04T11:02:14;6.60;;;2.55;;
11425;SDS011;5769;47.998;7.788;2023-03-04T11:04:48;7.18;;;2.75;;
11425;SDS011;5769;47.998;7.788;2023-03-04T11:07:20;5.88;;;2.60;;
11425;SDS011;5769;47.998;7.788;2023-03-04T11:09:50;5.95;;;2.90;;
11425;SDS011;5769;47.998;7.788;2023-03-04T11:12:18;4.90;;;2.40;;
11425;SDS011;5769;47.998;7.788;2023-03-04T11:14:47;8.02;;;2.45;;
11425;SDS011;5769;47.998;7.788;2023-03-04T11:17:16;5.15;;;2.22;;
11425;SDS011;5769;47.998;7.788;2023-03-04T11:19:47;6.38;;;2.47;;
11425;SDS011;5769;47.998;7.788;2023-03-04T11:22:16;4.35;;;2.47;;
11425;SDS011;5769;47.998;7.788;2023-03-04T11:24:47;4.97;;;2.50;;
11425;SDS011;5769;47.998;7.788;2023-03-04T11:27:23;4.95;;;2.50;;
11425;SDS011;5769;47.998;7.788;2023-03-04T11:30:08;5.47;;;2.65;;
11425;SDS011;5769;47.998;7.788;2023-03-04T11:32:46;5.10;;;2.40;;
11425;SDS011;5769;47.998;7.788;2023-03-04T11:35:17;5.50;;;2.30;;
11425;SDS011;5769;47.998;7.788;2023-03-04T11:37:51;4.93;;;2.45;;
11425;SDS011;5769;47.998;7.788;2023-03-04T11:40:25;4.18;;;2.25;;
11425;SDS011;5769;47.998;7.788;2023-03-04T11:42:58;5.25;;;2.30;;
11425;SDS011;5769;47.998;7.788;2023-03-04T11:45:30;4.28;;;2.25;;
11425;SDS011;5769;47.998;7.788;2023-03-04T11:48:11;5.28;;;2.45;;
11425;SDS011;5769;47.998;7.788;2023-03-04T11:50:44;5.80;;;2.65;;
11425;SDS011;5769;47.998;7.788;2023-03-04T11:53:22;4.95;;;2.55;;
11425;SDS011;5769;47.998;7.788;2023-03-04T11:56:14;6.78;;;2.40;;
11425;SDS011;5769;47.998;7.788;2023-03-04T11:59:07;4.57;;;2.38;;
11425;SDS011;5769;47.998;7.788;2023-03-04T12:01:51;4.65;;;2.60;;
11425;SDS011;5769;47.998;7.788;2023-03-04T12:04:39;5.32;;;2.17;;
11425;SDS011;5769;47.998;7.788;2023-03-04T12:07:21;5.07;;;2.47;;
11425;SDS011;5769;47.998;7.788;2023-03-04T12:10:02;4.38;;;2.45;;
11425;SDS011;5769;47.998;7.788;2023-03-04T12:12:50;4.25;;;2.30;;
11425;SDS011;5769;47.998;7.788;2023-03-04T12:15:26;4.15;;;2.22;;
11425;SDS011;5769;47.998;7.788;2023-03-04T12:18:11;6.18;;;2.80;;
11425;SDS011;5769;47.998;7.788;2023-03-04T12:20:50;5.35;;;2.55;;
11425;SDS011;5769;47.998;7.788;2023-03-04T12:23:38;5.00;;;2.60;;
11425;SDS011;5769;47.998;7.788;2023-03-04T12:26:18;4.53;;;2.40;;
11425;SDS011;5769;47.998;7.788;2023-03-04T12:28:53;4.93;;;2.53;;
11425;SDS011;5769;47.998;7.788;2023-03-04T12:31:30;3.95;;;2.30;;
11425;SDS011;5769;47.998;7.788;2023-03-04T12:34:11;5.68;;;2.22;;
11425;SDS011;5769;47.998;7.788;2023-03-04T12:36:55;4.57;;;2.25;;
11425;SDS011;5769;47.998;7.788;2023-03-04T12:39:35;5.70;;;2.13;;
11425;SDS011;5769;47.998;7.788;2023-03-04T12:42:07;4.63;;;2.25;;
11425;SDS011;5769;47.998;7.788;2023-03-04T12:44:45;4.65;;;2.13;;
11425;SDS011;5769;47.998;7.788;2023-03-04T12:47:22;5.55;;;2.22;;
11425;SDS011;5769;47.998;7.788;2023-03-04T12:49:58;5.43;;;2.55;;
11425;SDS011;5769;47.998;7.788;2023-03-04T12:52:43;4.55;;;2.25;;
11425;SDS011;5769;47.998;7.788;2023-03-04T12:55:19;6.18;;;2.30;;
11425;SDS011;5769;47.998;7.788;2023-03-04T12:57:53;4.32;;;2.28;;
11425;SDS011;5769;47.998;7.788;2023-03-04T13:00:24;5.10;;;2.38;;
11425;SDS011;5769;47.998;7.788;2023-03-04T13:03:02;4.35;;;2.28;;
11425;SDS011;5769;47.998;7.788;2023-03-04T13:05:43;6.40;;;2.50;;
11425;SDS011;5769;47.998;7.788;2023-03-04T13:08:26;4.80;;;2.22;;
11425;SDS011;5769;47.998;7.788;2023-03-04T13:10:59;5.50;;;2.47;;
11425;SDS011;5769;47.998;7.788;2023-03-04T13:13:35;4.72;;;2.60;;
11425;SDS011;5769;47.998;7.788;2023-03-04T13:16:18;4.20;;;2.20;;
11425;SDS011;5769;47.998;7.788;2023-03-04T13:18:55;4.47;;;2.33;;
11425;SDS011;5769;47.998;7.788;2023-03-04T13:21:22;4.90;;;2.22;;
11425;SDS011;5769;47.998;7.788;2023-03-04T13:23:50;4.60;;;2.13;;
11425;SDS011;5769;47.998;7.788;2023-03-04T13:26:20;3.50;;;2.08;;
11425;SDS011;5769;47.998;7.788;2023-03-04T13:28:53;3.25;;;2.10;;
11425;SDS011;5769;47.998;7.788;2023-03-04T13:31:40;6.22;;;2.47;;
11425;SDS011;5769;47.998;7.788;2023-03-04T13:37:25;3.95;;;2.30;;
11425;SDS011;5769;47.998;7.788;2023-03-04T13:43:05;5.25;;;2.22;;
11425;SDS011;5769;47.998;7.788;2023-03-04T13:45:48;3.50;;;1.95;;
11425;SDS011;5769;47.998;7.788;2023-03-04T13:48:32;4.50;;;2.08;;
11425;SDS011;5769;47.998;7.788;2023-03-04T13:51:01;5.25;;;2.28;;
11425;SDS011;5769;47.998;7.788;2023-03-04T13:53:29;5.25;;;2.40;;
11425;SDS011;5769;47.998;7.788;2023-03-04T13:56:11;4.97;;;2.40;;
11425;SDS011;5769;47.998;7.788;2023-03-04T13:59:00;3.63;;;2.10;;
11425;SDS011;5769;47.998;7.788;2023-03-04T14:01:47;3.83;;;2.00;;
11425;SDS011;5769;47.998;7.788;2023-03-04T14:04:18;4.20;;;2.22;;
11425;SDS011;5769;47.998;7.788;2023-03-04T14:06:46;4.20;;;1.83;;
11425;SDS011;5769;47.998;7.788;2023-03-04T14:09:14;3.50;;;1.90;;
11425;SDS011;5769;47.998;7.788;2023-03-04T14:11:44;5.15;;;2.33;;
11425;SDS011;5769;47.998;7.788;2023-03-04T14:14:13;4.55;;;2.13;;
11425;SDS011;5769;47.998;7.788;2023-03-04T14:16:45;4.32;;;2.20;;
11425;SDS011;5769;47.998;7.788;2023-03-04T14:19:16;4.53;;;2.10;;
11425;SDS011;5769;47.998;7.788;2023-03-04T14:21:49;3.88;;;2.20;;
11425;SDS011;5769;47.998;7.788;2023-03-04T14:24:16;5.13;;;2.30;;
11425;SDS011;5769;47.998;7.788;2023-03-04T14:26:44;4.30;;;2.40;;
11425;SDS011;5769;47.998;7.788;2023-03-04T14:29:18;4.43;;;2.50;;
11425;SDS011;5769;47.998;7.788;2023-03-04T14:31:47;3.97;;;2.22;;
11425;SDS011;5769;47.998;7.788;2023-03-04T14:34:16;4.38;;;2.15;;
11425;SDS011;5769;47.998;7.788;2023-03-04T14:36:53;5.32;;;2.20;;
11425;SDS011;5769;47.998;7.788;2023-03-04T14:39:21;4.13;;;2.22;;
11425;SDS011;5769;47.998;7.788;2023-03-04T14:41:50;4.13;;;2.10;;
11425;SDS011;5769;47.998;7.788;2023-03-04T14:44:22;3.30;;;1.90;;
11425;SDS011;5769;47.998;7.788;2023-03-04T14:46:54;4.18;;;2.28;;
11425;SDS011;5769;47.998;7.788;2023-03-04T14:49:27;3.80;;;1.80;;
11425;SDS011;5769;47.998;7.788;2023-03-04T14:51:54;4.60;;;1.70;;
11425;SDS011;5769;47.998;7.788;2023-03-04T14:54:23;4.13;;;2.10;;
11425;SDS011;5769;47.998;7.788;2023-03-04T14:56:55;4.03;;;1.90;;
11425;SDS011;5769;47.998;7.788;2023-03-04T14:59:32;4.82;;;2.08;;
11425;SDS011;5769;47.998;7.788;2023-03-04T15:02:17;4.43;;;2.08;;
11425;SDS011;5769;47.998;7.788;2023-03-04T15:04:47;5.53;;;2.38;;
11425;SDS011;5769;47.998;7.788;2023-03-04T15:07:16;4.25;;;2.03;;
11425;SDS011;5769;47.998;7.788;2023-03-04T15:09:49;6.32;;;2.30;;
11425;SDS011;5769;47.998;7.788;2023-03-04T15:12:21;4.07;;;2.30;;
11425;SDS011;5769;47.998;7.788;2023-03-04T15:14:50;3.78;;;2.00;;
11425;SDS011;5769;47.998;7.788;2023-03-04T15:17:26;3.50;;;1.75;;
11425;SDS011;5769;47.998;7.788;2023-03-04T15:19:59;3.92;;;1.90;;
11425;SDS011;5769;47.998;7.788;2023-03-04T15:22:27;3.28;;;1.80;;
11425;SDS011;5769;47.998;7.788;2023-03-04T15:24:54;3.58;;;1.90;;
11425;SDS011;5769;47.998;7.788;2023-03-04T15:27:21;4.55;;;2.03;;
11425;SDS011;5769;47.998;7.788;2023-03-04T15:29:50;3.22;;;1.80;;